Time;durP1;ratioP1;P1;durP2;ratioP2;P2;SDS_P1;SDS_P2;PMS_P1;PMS_P2;Temp;Humidity;BMP_temperature;BMP_pressure;BME280_temperature;BME280_humidity;BME280_pressure;Samples;Min_cycle;Max_cycle;Signal;HPM_P1;HPM_P2
2023/09/24 00:00:14;;;;;;;2.95;1.88;;;;;;;;;;10144380;28;20507;-83
2023/09/24 00:05:12;;;;;;;3.45;1.77;;;;;;;;;;10144972;28;20057;-84
2023/09/24 00:10:08;;;;;;;3.63;1.70;;;;;;;;;;10143988;28;20567;-84
2023/09/24 00:15:04;;;;;;;4.32;1.35;;;;;;;;;;10141095;28;20052;-84
2023/09/24 00:19:58;;;;;;;3.65;1.52;;;;;;;;;;10131162;28;20071;-84
2023/09/24 00:24:52;;;;;;;3.88;2.65;;;;;;;;;;10149721;28;20060;-83
2023/09/24 00:29:47;;;;;;;2.40;1.90;;;;;;;;;;10150563;28;20139;-83
2023/09/24 00:34:41;;;;;;;1.67;1.40;;;;;;;;;;10132442;28;20060;-84
2023/09/24 00:39:36;;;;;;;2.20;1.80;;;;;;;;;;10132303;28;20044;-84
2023/09/24 00:44:31;;;;;;;2.13;1.60;;;;;;;;;;10132621;28;20159;-83
2023/09/24 00:49:25;;;;;;;1.80;1.52;;;;;;;;;;10149563;28;20055;-83
2023/09/24 00:54:19;;;;;;;2.50;1.77;;;;;;;;;;10130650;28;20054;-83
2023/09/24 00:59:12;;;;;;;1.70;1.20;;;;;;;;;;10148670;28;20070;-84
2023/09/24 01:04:09;;;;;;;3.67;1.50;;;;;;;;;;10144055;28;20377;-83
2023/09/24 01:09:05;;;;;;;2.92;1.58;;;;;;;;;;10109213;28;20132;-84
2023/09/24 01:13:59;;;;;;;2.60;1.63;;;;;;;;;;10111335;28;20057;-83
2023/09/24 01:18:53;;;;;;;2.20;1.50;;;;;;;;;;10120603;28;20045;-83
2023/09/24 01:23:49;;;;;;;1.50;1.40;;;;;;;;;;10091536;28;20045;-84
2023/09/24 01:28:43;;;;;;;5.88;1.40;;;;;;;;;;10112592;28;20033;-86
2023/09/24 01:33:39;;;;;;;4.20;1.27;;;;;;;;;;10109567;28;20072;-85
2023/09/24 01:38:33;;;;;;;4.13;1.40;;;;;;;;;;10096270;28;20044;-84
2023/09/24 01:43:28;;;;;;;5.18;1.40;;;;;;;;;;10109825;28;20037;-84
2023/09/24 01:48:22;;;;;;;2.72;1.42;;;;;;;;;;10111291;28;20048;-83
2023/09/24 01:53:15;;;;;;;3.88;2.30;;;;;;;;;;10090939;28;20057;-85
2023/09/24 01:58:09;;;;;;;4.75;1.60;;;;;;;;;;10091482;28;20076;-83
2023/09/24 02:03:10;;;;;;;4.78;2.58;;;;;;;;;;10075482;28;20566;-84
2023/09/24 02:08:08;;;;;;;1.70;1.30;;;;;;;;;;10106226;28;20478;-84
2023/09/24 02:13:03;;;;;;;3.38;1.77;;;;;;;;;;10089877;28;21045;-84
2023/09/24 02:17:57;;;;;;;4.00;1.40;;;;;;;;;;10110777;28;20136;-84
2023/09/24 02:22:52;;;;;;;1.67;1.50;;;;;;;;;;10108110;28;20099;-84
2023/09/24 02:27:46;;;;;;;2.15;1.50;;;;;;;;;;10094096;28;20083;-84
2023/09/24 02:32:41;;;;;;;3.53;1.75;;;;;;;;;;10089759;28;20152;-84
2023/09/24 02:37:35;;;;;;;2.28;1.00;;;;;;;;;;10107836;28;20036;-84
2023/09/24 02:42:29;;;;;;;1.85;1.65;;;;;;;;;;10107843;28;20051;-85
2023/09/24 02:47:24;;;;;;;3.20;1.33;;;;;;;;;;10107017;28;20049;-84
2023/09/24 02:52:18;;;;;;;1.27;1.00;;;;;;;;;;10089463;28;20080;-83
2023/09/24 02:57:12;;;;;;;2.38;1.45;;;;;;;;;;10088027;28;20045;-85
2023/09/24 03:02:06;;;;;;;2.35;1.52;;;;;;;;;;10107809;28;20146;-84
2023/09/24 03:07:00;;;;;;;1.70;1.60;;;;;;;;;;10106781;28;20118;-84
2023/09/24 03:11:56;;;;;;;2.47;1.10;;;;;;;;;;10091976;28;20060;-83
2023/09/24 03:16:49;;;;;;;3.58;1.40;;;;;;;;;;10106261;28;20068;-84
2023/09/24 03:21:44;;;;;;;1.50;1.15;;;;;;;;;;10087945;28;20055;-83
2023/09/24 03:26:38;;;;;;;3.72;1.17;;;;;;;;;;10107085;28;20033;-84
2023/09/24 03:31:33;;;;;;;2.70;1.40;;;;;;;;;;10088208;28;20143;-84
2023/09/24 03:36:31;;;;;;;3.67;1.35;;;;;;;;;;10088137;28;20084;-84
2023/09/24 03:41:26;;;;;;;4.00;1.63;;;;;;;;;;10087485;28;20059;-84
2023/09/24 03:46:20;;;;;;;1.95;1.50;;;;;;;;;;10106221;28;20033;-84
2023/09/24 03:51:14;;;;;;;2.10;1.40;;;;;;;;;;10087627;28;20592;-84
2023/09/24 03:56:08;;;;;;;1.65;1.55;;;;;;;;;;10112449;28;20056;-83
2023/09/24 04:01:28;;;;;;;2.28;1.80;;;;;;;;;;10112324;28;20368;-84
2023/09/24 04:06:22;;;;;;;2.13;1.63;;;;;;;;;;10115290;28;20077;-83
2023/09/24 04:11:17;;;;;;;7.70;1.77;;;;;;;;;;10095557;28;20052;-83
2023/09/24 04:16:12;;;;;;;2.28;1.98;;;;;;;;;;10114598;28;20079;-84
2023/09/24 04:21:15;;;;;;;5.20;2.20;;;;;;;;;;10134791;28;20051;-84
2023/09/24 04:26:37;;;;;;;9.50;2.00;;;;;;;;;;10138561;28;20056;-84
2023/09/24 04:31:31;;;;;;;1.85;1.63;;;;;;;;;;10112218;28;20053;-84
2023/09/24 04:36:26;;;;;;;3.90;2.33;;;;;;;;;;10112424;28;20488;-84
2023/09/24 04:41:21;;;;;;;2.65;1.70;;;;;;;;;;10111909;28;20056;-84
2023/09/24 04:46:15;;;;;;;2.30;1.52;;;;;;;;;;10110769;28;20499;-85
2023/09/24 04:51:10;;;;;;;2.67;1.85;;;;;;;;;;10111911;28;20539;-84
2023/09/24 04:56:07;;;;;;;3.03;1.95;;;;;;;;;;10110773;28;20056;-84
2023/09/24 05:01:07;;;;;;;2.00;1.77;;;;;;;;;;10129691;28;20044;-85
2023/09/24 05:06:05;;;;;;;2.17;1.50;;;;;;;;;;10129544;28;20048;-84
2023/09/24 05:10:59;;;;;;;2.35;2.15;;;;;;;;;;10147116;28;20056;-84
2023/09/24 05:15:54;;;;;;;1.85;1.60;;;;;;;;;;10120062;28;20057;-84
2023/09/24 05:20:48;;;;;;;2.55;1.60;;;;;;;;;;10144161;28;20472;-85
2023/09/24 05:25:42;;;;;;;4.05;1.70;;;;;;;;;;10146544;28;20189;-85
2023/09/24 05:30:37;;;;;;;2.88;2.25;;;;;;;;;;10149541;28;20079;-86
2023/09/24 05:35:31;;;;;;;5.05;2.10;;;;;;;;;;10150004;28;20067;-86
2023/09/24 05:40:25;;;;;;;3.95;1.55;;;;;;;;;;10148395;28;20072;-85
2023/09/24 05:45:20;;;;;;;2.90;1.70;;;;;;;;;;10147460;28;20051;-85
2023/09/24 05:50:14;;;;;;;2.35;1.58;;;;;;;;;;10147581;28;20053;-87
2023/09/24 05:55:09;;;;;;;1.63;1.45;;;;;;;;;;10137406;28;20063;-87
2023/09/24 06:00:08;;;;;;;2.30;1.50;;;;;;;;;;10147330;28;20053;-85
2023/09/24 06:05:07;;;;;;;2.72;1.77;;;;;;;;;;10147854;28;20731;-85
2023/09/24 06:10:04;;;;;;;2.10;1.90;;;;;;;;;;10130464;28;20059;-86
2023/09/24 06:14:59;;;;;;;5.32;1.83;;;;;;;;;;10148245;28;20420;-85
2023/09/24 06:19:55;;;;;;;3.03;1.48;;;;;;;;;;10147015;28;20068;-87
2023/09/24 06:24:50;;;;;;;2.88;1.42;;;;;;;;;;10146315;28;20059;-84
2023/09/24 06:29:43;;;;;;;7.43;2.45;;;;;;;;;;10146014;28;20479;-82
2023/09/24 06:34:38;;;;;;;3.08;1.33;;;;;;;;;;10124941;28;20140;-84
2023/09/24 06:39:33;;;;;;;1.88;1.40;;;;;;;;;;10120623;28;20445;-84
2023/09/24 06:44:29;;;;;;;4.65;1.30;;;;;;;;;;10072710;28;20087;-82
2023/09/24 06:49:23;;;;;;;1.73;1.00;;;;;;;;;;10117430;28;20095;-82
2023/09/24 06:54:17;;;;;;;5.57;1.20;;;;;;;;;;10144633;28;20070;-83
2023/09/24 06:59:11;;;;;;;2.05;1.45;;;;;;;;;;10145118;28;20495;-84
2023/09/24 07:04:06;;;;;;;1.73;1.30;;;;;;;;;;10127339;28;20544;-84
2023/09/24 07:09:01;;;;;;;3.17;1.33;;;;;;;;;;10123054;28;20060;-84
2023/09/24 07:13:56;;;;;;;2.55;1.48;;;;;;;;;;10133752;28;20490;-83
2023/09/24 07:18:56;;;;;;;3.67;1.50;;;;;;;;;;10144578;28;20045;-82
2023/09/24 07:23:54;;;;;;;1.83;1.10;;;;;;;;;;10143705;28;20048;-85
2023/09/24 07:28:50;;;;;;;1.33;1.23;;;;;;;;;;10144487;28;20462;-84
2023/09/24 07:33:44;;;;;;;2.38;1.73;;;;;;;;;;10124626;28;20078;-83
2023/09/24 07:38:43;;;;;;;1.70;1.23;;;;;;;;;;10142967;28;20053;-85
2023/09/24 07:43:53;;;;;;;2.25;1.35;;;;;;;;;;10142747;28;20063;-84
2023/09/24 07:48:48;;;;;;;1.95;1.38;;;;;;;;;;10130803;28;20068;-84
2023/09/24 07:53:44;;;;;;;1.92;1.70;;;;;;;;;;10130941;28;20110;-83
2023/09/24 07:58:41;;;;;;;3.95;2.20;;;;;;;;;;10125273;28;20052;-84
2023/09/24 08:03:36;;;;;;;3.17;2.00;;;;;;;;;;10143284;28;20573;-83
2023/09/24 08:08:34;;;;;;;4.43;2.03;;;;;;;;;;10143220;28;20139;-83
2023/09/24 08:13:44;;;;;;;3.85;2.22;;;;;;;;;;10143718;28;20482;-83
2023/09/24 08:18:41;;;;;;;3.58;2.33;;;;;;;;;;10141190;28;20491;-83
2023/09/24 08:23:35;;;;;;;3.30;2.50;;;;;;;;;;10131688;28;20045;-84
2023/09/24 08:28:29;;;;;;;2.70;2.03;;;;;;;;;;10133623;28;20499;-84
2023/09/24 08:33:23;;;;;;;3.33;2.00;;;;;;;;;;10142289;28;20052;-84
2023/09/24 08:38:18;;;;;;;2.53;2.10;;;;;;;;;;10127089;28;20514;-83
2023/09/24 08:43:19;;;;;;;4.20;1.88;;;;;;;;;;10134602;28;20045;-84
2023/09/24 08:48:29;;;;;;;5.85;2.60;;;;;;;;;;10140033;28;20071;-83
2023/09/24 08:53:33;;;;;;;4.28;2.05;;;;;;;;;;10125534;28;20049;-83
2023/09/24 08:58:28;;;;;;;3.72;2.28;;;;;;;;;;10102811;28;20059;-84
2023/09/24 09:03:30;;;;;;;4.90;2.35;;;;;;;;;;10134509;28;20079;-83
2023/09/24 09:08:24;;;;;;;5.10;2.90;;;;;;;;;;10129550;28;20438;-83
2023/09/24 09:13:18;;;;;;;4.00;2.78;;;;;;;;;;10148782;28;20463;-82
2023/09/24 09:18:26;;;;;;;4.60;3.08;;;;;;;;;;10135531;28;20048;-83
2023/09/24 09:23:30;;;;;;;5.38;3.05;;;;;;;;;;10146935;28;20534;-84
2023/09/24 09:28:29;;;;;;;4.40;2.45;;;;;;;;;;10139307;28;20068;-85
2023/09/24 09:33:32;;;;;;;5.05;3.10;;;;;;;;;;10144660;28;20114;-83
2023/09/24 09:38:27;;;;;;;3.95;2.70;;;;;;;;;;10147285;28;20061;-84
2023/09/24 09:43:23;;;;;;;3.75;3.15;;;;;;;;;;10147133;28;20106;-84
2023/09/24 09:48:17;;;;;;;3.40;2.75;;;;;;;;;;10117737;28;20120;-83
2023/09/24 09:53:17;;;;;;;7.28;4.35;;;;;;;;;;10144791;28;20408;-84
2023/09/24 09:58:12;;;;;;;4.47;3.65;;;;;;;;;;10129165;28;20052;-83
2023/09/24 10:03:33;;;;;;;4.10;3.22;;;;;;;;;;10052003;28;20080;-85
2023/09/24 10:08:42;;;;;;;8.25;4.10;;;;;;;;;;10046714;28;20101;-84
2023/09/24 10:13:50;;;;;;;4.90;3.63;;;;;;;;;;10061774;28;20061;-84
2023/09/24 10:19:29;;;;;;;10.48;4.10;;;;;;;;;;10052104;28;20103;-84
2023/09/24 10:24:28;;;;;;;3.05;2.40;;;;;;;;;;10118219;28;20144;-84
2023/09/24 10:29:51;;;;;;;3.90;2.85;;;;;;;;;;10109688;28;20562;-84
2023/09/24 10:34:54;;;;;;;2.33;2.05;;;;;;;;;;10108474;28;20041;-84
2023/09/24 10:40:04;;;;;;;4.68;1.30;;;;;;;;;;10109867;28;20048;-84
2023/09/24 10:45:14;;;;;;;2.45;1.75;;;;;;;;;;10115160;28;20044;-84
2023/09/24 10:50:12;;;;;;;2.97;1.95;;;;;;;;;;10107766;28;20056;-85
2023/09/24 10:55:07;;;;;;;3.42;1.73;;;;;;;;;;10123277;28;20052;-86
2023/09/24 11:00:01;;;;;;;1.55;1.45;;;;;;;;;;10135431;28;20091;-83
2023/09/24 11:05:02;;;;;;;1.65;1.38;;;;;;;;;;10112665;28;20053;-83
2023/09/24 11:09:55;;;;;;;0.98;0.98;;;;;;;;;;10090357;28;20048;-85
2023/09/24 11:14:59;;;;;;;1.52;1.05;;;;;;;;;;10124794;28;20056;-85
2023/09/24 11:20:09;;;;;;;2.33;0.90;;;;;;;;;;10108958;28;20497;-85
2023/09/24 11:25:13;;;;;;;1.40;1.20;;;;;;;;;;10135535;28;20044;-84
2023/09/24 11:30:09;;;;;;;1.30;1.17;;;;;;;;;;10129094;28;20053;-84
2023/09/24 11:35:10;;;;;;;1.27;1.08;;;;;;;;;;10123663;28;20393;-81
2023/09/24 11:40:05;;;;;;;1.17;1.17;;;;;;;;;;10133998;28;20041;-83
2023/09/24 11:45:03;;;;;;;2.92;0.93;;;;;;;;;;10112084;28;20098;-84
2023/09/24 11:49:57;;;;;;;0.80;0.80;;;;;;;;;;10124503;28;20076;-85
2023/09/24 11:54:51;;;;;;;0.85;0.82;;;;;;;;;;10126843;28;20059;-83
2023/09/24 11:59:46;;;;;;;1.30;1.10;;;;;;;;;;10133347;28;20056;-83
2023/09/24 12:04:40;;;;;;;1.27;1.17;;;;;;;;;;10133679;28;20091;-84
2023/09/24 12:09:35;;;;;;;1.33;0.90;;;;;;;;;;10112675;28;20037;-83
2023/09/24 12:14:32;;;;;;;1.10;1.00;;;;;;;;;;10119281;28;20061;-84
2023/09/24 12:19:26;;;;;;;2.40;0.70;;;;;;;;;;10143406;28;20143;-83
2023/09/24 12:24:18;;;;;;;1.38;0.98;;;;;;;;;;10151425;28;20044;-83
2023/09/24 12:29:13;;;;;;;0.88;0.88;;;;;;;;;;10151375;28;20056;-83
2023/09/24 12:34:07;;;;;;;0.95;0.93;;;;;;;;;;10151374;28;20587;-82
2023/09/24 12:39:01;;;;;;;2.20;1.05;;;;;;;;;;10127911;28;20091;-83
2023/09/24 12:43:55;;;;;;;1.55;1.45;;;;;;;;;;10150473;28;20054;-83
2023/09/24 12:48:51;;;;;;;2.28;0.90;;;;;;;;;;10150061;28;20048;-84
2023/09/24 12:53:45;;;;;;;1.55;1.15;;;;;;;;;;10146798;28;20051;-84
2023/09/24 12:58:43;;;;;;;1.10;1.05;;;;;;;;;;10126155;28;20052;-84
2023/09/24 13:03:37;;;;;;;2.20;0.95;;;;;;;;;;10135550;28;20033;-84
2023/09/24 13:08:31;;;;;;;1.15;0.90;;;;;;;;;;10149295;28;20110;-84
2023/09/24 13:13:24;;;;;;;3.00;1.25;;;;;;;;;;10148570;28;20063;-84
2023/09/24 13:18:18;;;;;;;1.40;1.10;;;;;;;;;;10140821;28;20052;-84
2023/09/24 13:23:13;;;;;;;2.70;1.02;;;;;;;;;;10137559;28;20052;-84
2023/09/24 13:28:07;;;;;;;1.15;1.05;;;;;;;;;;10113643;28;20057;-84
2023/09/24 13:33:03;;;;;;;4.82;1.40;;;;;;;;;;10144418;28;20124;-85
2023/09/24 13:37:59;;;;;;;1.92;0.88;;;;;;;;;;10148428;28;20044;-84
2023/09/24 13:42:53;;;;;;;0.80;0.80;;;;;;;;;;10148228;28;20399;-85
2023/09/24 13:47:47;;;;;;;2.90;0.98;;;;;;;;;;10147911;28;20048;-84
2023/09/24 13:52:43;;;;;;;1.20;1.10;;;;;;;;;;10139562;28;20041;-83
2023/09/24 13:57:38;;;;;;;3.20;0.70;;;;;;;;;;10111462;28;20481;-84
2023/09/24 14:02:33;;;;;;;1.50;1.02;;;;;;;;;;10109311;28;20135;-84
2023/09/24 14:07:28;;;;;;;1.02;0.77;;;;;;;;;;10118287;28;20049;-84
2023/09/24 14:12:24;;;;;;;1.05;0.63;;;;;;;;;;10135754;28;20053;-84
2023/09/24 14:17:21;;;;;;;0.98;0.80;;;;;;;;;;10129921;28;20222;-84
2023/09/24 14:22:16;;;;;;;3.95;0.57;;;;;;;;;;10130683;28;20459;-86
2023/09/24 14:27:12;;;;;;;;;;;;;;;;;;10132678;28;20056;-85
2023/09/24 14:32:09;;;;;;;1.10;1.00;;;;;;;;;;10142249;28;20391;-84
2023/09/24 14:37:02;;;;;;;2.67;0.70;;;;;;;;;;10125787;28;20040;-84
2023/09/24 14:41:58;;;;;;;1.45;0.68;;;;;;;;;;10125347;28;20055;-85
2023/09/24 14:46:55;;;;;;;;;;;;;;;;;;10130722;28;20133;-84
2023/09/24 14:51:48;;;;;;;2.35;0.90;;;;;;;;;;10140286;28;19960;-84
2023/09/24 14:56:43;;;;;;;0.77;0.68;;;;;;;;;;10140593;28;20075;-84
2023/09/24 15:01:39;;;;;;;1.42;0.90;;;;;;;;;;10129498;28;20060;-85
2023/09/24 15:06:32;;;;;;;0.65;0.50;;;;;;;;;;10129175;28;20052;-85
2023/09/24 15:11:26;;;;;;;1.02;0.68;;;;;;;;;;10157242;28;20048;-85
2023/09/24 15:16:21;;;;;;;1.13;0.60;;;;;;;;;;10164572;28;20041;-85
2023/09/24 15:21:17;;;;;;;2.60;1.13;;;;;;;;;;10167929;28;20045;-86
2023/09/24 15:26:12;;;;;;;0.85;0.68;;;;;;;;;;10168219;28;20025;-85
2023/09/24 15:31:08;;;;;;;1.70;0.60;;;;;;;;;;10186330;28;20039;-84
2023/09/24 15:36:03;;;;;;;0.93;0.77;;;;;;;;;;10189980;28;20072;-85
2023/09/24 15:40:57;;;;;;;1.10;0.57;;;;;;;;;;10189025;28;20052;-86
2023/09/24 15:45:51;;;;;;;0.77;0.68;;;;;;;;;;10177349;28;20119;-86
2023/09/24 15:50:47;;;;;;;0.75;0.70;;;;;;;;;;10184360;28;20029;-86
2023/09/24 15:55:43;;;;;;;0.80;0.60;;;;;;;;;;10191613;28;20492;-86
2023/09/24 16:00:37;;;;;;;1.33;0.80;;;;;;;;;;10160226;28;20048;-86
2023/09/24 16:05:32;;;;;;;0.98;0.88;;;;;;;;;;10171694;28;20051;-86
2023/09/24 16:10:26;;;;;;;1.60;0.90;;;;;;;;;;10180146;28;20041;-86
2023/09/24 16:15:21;;;;;;;1.20;0.60;;;;;;;;;;10174626;28;20135;-85
2023/09/24 16:20:15;;;;;;;0.80;0.80;;;;;;;;;;10164793;28;20098;-85
2023/09/24 16:25:12;;;;;;;5.40;1.15;;;;;;;;;;10154167;28;20106;-85
2023/09/24 16:30:09;;;;;;;1.30;0.80;;;;;;;;;;10129124;28;20503;-85
2023/09/24 16:35:04;;;;;;;0.88;0.80;;;;;;;;;;10096299;28;20103;-85
2023/09/24 16:39:59;;;;;;;1.40;0.70;;;;;;;;;;10117327;28;20086;-85
2023/09/24 16:44:55;;;;;;;1.30;0.98;;;;;;;;;;10111848;28;20079;-87
2023/09/24 16:49:48;;;;;;;1.40;1.20;;;;;;;;;;10110964;28;20118;-86
2023/09/24 16:54:42;;;;;;;2.00;1.48;;;;;;;;;;10111865;28;20044;-84
2023/09/24 16:59:37;;;;;;;9.63;4.00;;;;;;;;;;10111474;28;20401;-86
2023/09/24 17:04:32;;;;;;;4.10;2.85;;;;;;;;;;10111716;28;20135;-86
2023/09/24 17:09:25;;;;;;;13.15;7.65;;;;;;;;;;10110414;28;20547;-86
2023/09/24 17:14:20;;;;;;;7.57;5.78;;;;;;;;;;10112892;28;20056;-87
2023/09/24 17:19:16;;;;;;;7.10;6.40;;;;;;;;;;10110242;28;20045;-86
2023/09/24 17:24:09;;;;;;;67.88;51.03;;;;;;;;;;10110331;28;20451;-86
2023/09/24 17:29:05;;;;;;;18.27;15.65;;;;;;;;;;10115132;28;20041;-85
2023/09/24 17:34:02;;;;;;;94.90;67.83;;;;;;;;;;10134629;28;20049;-85
2023/09/24 17:38:56;;;;;;;17.95;15.98;;;;;;;;;;10125639;28;20503;-85
2023/09/24 17:43:51;;;;;;;6.97;3.65;;;;;;;;;;10110372;28;20056;-85
2023/09/24 17:48:46;;;;;;;4.68;2.40;;;;;;;;;;10111575;28;20076;-85
2023/09/24 17:53:41;;;;;;;75.35;43.10;;;;;;;;;;10113059;28;20068;-84
2023/09/24 17:58:35;;;;;;;64.38;50.28;;;;;;;;;;10110070;28;20063;-85
2023/09/24 18:03:30;;;;;;;132.63;76.55;;;;;;;;;;10130684;28;20808;-85
2023/09/24 18:08:27;;;;;;;111.05;65.68;;;;;;;;;;10108035;28;20041;-85
2023/09/24 18:13:21;;;;;;;76.07;59.53;;;;;;;;;;10117809;28;20130;-84
2023/09/24 18:18:21;;;;;;;4.72;4.13;;;;;;;;;;10108026;28;20494;-85
2023/09/24 18:23:16;;;;;;;4.47;2.42;;;;;;;;;;10113491;28;20059;-85
2023/09/24 18:28:10;;;;;;;4.50;1.70;;;;;;;;;;10119913;28;20131;-84
2023/09/24 18:33:07;;;;;;;3.50;1.20;;;;;;;;;;10125354;28;20079;-85
2023/09/24 18:38:01;;;;;;;2.58;1.30;;;;;;;;;;10105189;28;20048;-84
2023/09/24 18:42:55;;;;;;;2.35;1.50;;;;;;;;;;10110840;28;20033;-84
2023/09/24 18:47:49;;;;;;;3.20;2.42;;;;;;;;;;10113738;28;20063;-84
2023/09/24 18:52:44;;;;;;;4.20;2.55;;;;;;;;;;10119456;28;20210;-85
2023/09/24 18:57:38;;;;;;;4.20;3.38;;;;;;;;;;10117833;28;20045;-84
2023/09/24 19:02:31;;;;;;;15.98;9.55;;;;;;;;;;10121029;28;20044;-84
2023/09/24 19:07:28;;;;;;;15.23;10.43;;;;;;;;;;10113862;28;20203;-85
2023/09/24 19:12:22;;;;;;;16.13;9.18;;;;;;;;;;10124959;28;20056;-84
2023/09/24 19:17:18;;;;;;;18.15;11.02;;;;;;;;;;10129810;28;20060;-85
2023/09/24 19:22:12;;;;;;;7.90;5.68;;;;;;;;;;10116498;28;20059;-85
2023/09/24 19:27:06;;;;;;;6.03;4.05;;;;;;;;;;10109567;28;20568;-86
2023/09/24 19:32:01;;;;;;;9.23;5.55;;;;;;;;;;10093803;28;20053;-85
2023/09/24 19:36:56;;;;;;;6.50;5.22;;;;;;;;;;10133552;28;20139;-87
2023/09/24 19:41:52;;;;;;;9.18;5.45;;;;;;;;;;10131484;28;20064;-87
2023/09/24 19:46:49;;;;;;;5.28;4.15;;;;;;;;;;10133194;28;20041;-87
2023/09/24 19:51:44;;;;;;;2.88;2.40;;;;;;;;;;10128060;28;20052;-86
2023/09/24 19:56:38;;;;;;;4.63;1.80;;;;;;;;;;10136848;28;20083;-84
2023/09/24 20:01:33;;;;;;;2.03;1.67;;;;;;;;;;10134190;28;20106;-86
2023/09/24 20:06:32;;;;;;;2.70;1.87;;;;;;;;;;10127440;28;20060;-86
2023/09/24 20:11:26;;;;;;;2.55;1.60;;;;;;;;;;10121243;28;20059;-86
2023/09/24 20:16:21;;;;;;;1.63;1.33;;;;;;;;;;10110888;28;20534;-86
2023/09/24 20:21:16;;;;;;;2.35;1.10;;;;;;;;;;10133420;28;20083;-85
2023/09/24 20:26:13;;;;;;;1.13;1.02;;;;;;;;;;10136316;28;20075;-86
2023/09/24 20:31:10;;;;;;;3.13;1.50;;;;;;;;;;10128470;28;20052;-86
2023/09/24 20:36:04;;;;;;;1.20;1.10;;;;;;;;;;10129384;28;20105;-83
2023/09/24 20:41:07;;;;;;;1.55;1.30;;;;;;;;;;10147277;28;20029;-84
2023/09/24 20:46:02;;;;;;;1.63;1.17;;;;;;;;;;10127019;28;20045;-85
2023/09/24 20:50:56;;;;;;;1.58;1.00;;;;;;;;;;10103604;28;20048;-85
2023/09/24 20:55:50;;;;;;;1.60;1.38;;;;;;;;;;10149714;28;20105;-85
2023/09/24 21:00:44;;;;;;;2.47;1.48;;;;;;;;;;10146186;28;20467;-85
2023/09/24 21:05:38;;;;;;;1.70;1.00;;;;;;;;;;10148266;28;20419;-87
2023/09/24 21:10:31;;;;;;;1.35;1.23;;;;;;;;;;10150555;28;20147;-86
2023/09/24 21:15:25;;;;;;;1.60;1.10;;;;;;;;;;10140888;28;20057;-87
2023/09/24 21:20:20;;;;;;;1.10;1.00;;;;;;;;;;10140148;28;20052;-87
2023/09/24 21:25:15;;;;;;;1.10;1.00;;;;;;;;;;10142108;28;20053;-87
2023/09/24 21:30:11;;;;;;;1.38;1.00;;;;;;;;;;10136884;28;20418;-87
2023/09/24 21:35:06;;;;;;;1.25;1.15;;;;;;;;;;10137421;28;20056;-87
2023/09/24 21:40:00;;;;;;;1.85;0.93;;;;;;;;;;10140284;28;20040;-87
2023/09/24 21:45:00;;;;;;;0.93;0.90;;;;;;;;;;10140517;28;20044;-87
2023/09/24 21:49:54;;;;;;;3.15;1.35;;;;;;;;;;10129019;28;20393;-87
2023/09/24 21:54:49;;;;;;;1.05;1.00;;;;;;;;;;10147565;28;20087;-87
2023/09/24 21:59:43;;;;;;;1.20;1.10;;;;;;;;;;10147980;28;20043;-88
2023/09/24 22:04:38;;;;;;;2.70;1.40;;;;;;;;;;10147709;28;20087;-87
2023/09/24 22:09:31;;;;;;;1.40;1.00;;;;;;;;;;10147875;28;20063;-87
2023/09/24 22:14:26;;;;;;;2.60;1.10;;;;;;;;;;10148575;28;20106;-87
2023/09/24 22:19:20;;;;;;;1.10;0.90;;;;;;;;;;10148287;28;20503;-85
2023/09/24 22:24:15;;;;;;;1.33;1.10;;;;;;;;;;10147366;28;20414;-84
2023/09/24 22:29:09;;;;;;;1.30;1.20;;;;;;;;;;10145886;28;20101;-84
2023/09/24 22:34:05;;;;;;;3.15;1.15;;;;;;;;;;10146389;28;20094;-85
2023/09/24 22:38:59;;;;;;;1.88;0.90;;;;;;;;;;10146252;28;20487;-84
2023/09/24 22:43:53;;;;;;;0.85;0.80;;;;;;;;;;10127804;28;20119;-84
2023/09/24 22:48:47;;;;;;;1.15;1.02;;;;;;;;;;10145608;28;20448;-84
2023/09/24 22:53:43;;;;;;;1.75;1.23;;;;;;;;;;10144897;28;20045;-84
2023/09/24 22:58:37;;;;;;;1.55;1.00;;;;;;;;;;10144603;28;20052;-84
2023/09/24 23:03:29;;;;;;;1.05;0.98;;;;;;;;;;10143978;28;20059;-84
2023/09/24 23:08:24;;;;;;;3.25;1.45;;;;;;;;;;10145674;28;20040;-85
2023/09/24 23:13:18;;;;;;;0.93;0.93;;;;;;;;;;10134221;28;20067;-84
2023/09/24 23:18:13;;;;;;;1.42;1.30;;;;;;;;;;10144746;28;20102;-84
2023/09/24 23:23:09;;;;;;;1.70;1.60;;;;;;;;;;10144355;28;20094;-83
2023/09/24 23:28:06;;;;;;;3.20;1.65;;;;;;;;;;10144364;28;20438;-84
2023/09/24 23:33:01;;;;;;;2.10;1.90;;;;;;;;;;10144043;28;20055;-83
2023/09/24 23:37:55;;;;;;;5.10;1.63;;;;;;;;;;10134317;28;20047;-82
2023/09/24 23:42:51;;;;;;;2.85;1.83;;;;;;;;;;10107097;28;20123;-84
2023/09/24 23:47:45;;;;;;;4.90;3.30;;;;;;;;;;10106137;28;20139;-85
2023/09/24 23:52:40;;;;;;;5.82;3.95;;;;;;;;;;10106708;28;20148;-83
2023/09/24 23:57:34;;;;;;;5.55;3.90;;;;;;;;;;10106808;28;20087;-83
